Time;durP1;ratioP1;P1;durP2;ratioP2;P2;SDS_P1;SDS_P2;PMS_P1;PMS_P2;Temp;Humidity;BMP_temperature;BMP_pressure;BME280_temperature;BME280_humidity;BME280_pressure;Samples;Min_cycle;Max_cycle;Signal;HPM_P1;HPM_P2
2023/07/23 00:00:26;;;;;;;5.50;3.40;;;17.90;1.00;;;;;;5056896;28;20198;-74
2023/07/23 00:02:52;;;;;;;8.37;3.73;;;17.90;1.00;;;;;;5069486;28;20481;-74
2023/07/23 00:05:18;;;;;;;5.20;3.80;;;18.00;1.00;;;;;;5070916;28;20488;-74
2023/07/23 00:07:44;;;;;;;5.63;3.17;;;18.00;1.00;;;;;;5055092;28;20481;-74
2023/07/23 00:10:10;;;;;;;4.47;3.47;;;18.00;1.00;;;;;;5056020;28;20182;-74
2023/07/23 00:12:36;;;;;;;9.33;3.60;;;18.10;1.00;;;;;;5071159;28;20260;-74
2023/07/23 00:15:03;;;;;;;6.53;3.80;;;18.10;1.00;;;;;;5064558;28;20186;-74
2023/07/23 00:17:45;;;;;;;6.77;3.70;;;18.10;1.00;;;;;;5067360;28;20481;-83
2023/07/23 00:20:15;;;;;;;3.63;3.30;;;18.10;1.00;;;;;;5076285;28;20911;-84
2023/07/23 00:22:41;;;;;;;7.10;4.00;;;18.10;1.00;;;;;;5076055;28;20955;-84
2023/07/23 00:25:45;;;;;;;3.80;3.30;;;18.10;1.00;;;;;;5057384;28;20479;-84
2023/07/23 00:28:15;;;;;;;4.30;3.47;;;18.10;1.00;;;;;;5063899;28;20202;-84
2023/07/23 00:30:41;;;;;;;10.30;3.80;;;18.00;1.00;;;;;;5069229;28;20421;-83
2023/07/23 00:33:07;;;;;;;5.23;3.23;;;18.00;1.00;;;;;;5068349;28;20412;-74
2023/07/23 00:35:33;;;;;;;5.07;4.20;;;18.00;1.00;;;;;;5068332;28;20173;-74
2023/07/23 00:38:03;;;;;;;7.40;3.57;;;17.90;1.00;;;;;;5067907;28;20182;-74
2023/07/23 00:40:29;;;;;;;7.77;4.10;;;17.90;1.00;;;;;;5066402;28;20643;-74
2023/07/23 00:42:55;;;;;;;7.10;3.87;;;17.80;1.00;;;;;;5068345;28;20455;-74
2023/07/23 00:45:24;;;;;;;4.43;3.40;;;17.70;1.00;;;;;;5068589;28;20186;-74
2023/07/23 00:48:03;;;;;;;6.70;3.80;;;17.60;1.00;;;;;;5061950;28;20300;-84
2023/07/23 00:50:40;;;;;;;5.40;3.83;;;17.50;1.00;;;;;;5063670;28;20404;-84
2023/07/23 00:53:09;;;;;;;4.00;3.60;;;17.40;1.00;;;;;;5060458;28;20961;-84
2023/07/23 00:56:09;;;;;;;5.37;3.47;;;17.40;1.00;;;;;;5071781;28;20510;-84
2023/07/23 00:58:47;;;;;;;5.80;3.90;;;17.30;1.00;;;;;;5074939;28;20404;-84
2023/07/23 01:01:15;;;;;;;5.50;3.70;;;17.20;1.00;;;;;;5075380;28;20446;-84
2023/07/23 01:03:46;;;;;;;5.00;3.93;;;17.20;1.00;;;;;;5070184;28;20428;-74
2023/07/23 01:06:17;;;;;;;10.33;4.97;;;17.00;1.00;;;;;;5066414;28;20415;-74
2023/07/23 01:08:44;;;;;;;11.10;4.10;;;16.90;1.00;;;;;;5068186;28;20509;-74
2023/07/23 01:11:10;;;;;;;7.97;4.50;;;16.90;1.00;;;;;;5061573;28;20501;-74
2023/07/23 01:13:40;;;;;;;5.73;4.43;;;16.90;1.00;;;;;;5062009;28;20440;-74
2023/07/23 01:16:07;;;;;;;8.33;4.37;;;16.70;1.00;;;;;;5068620;28;20375;-74
2023/07/23 01:18:40;;;;;;;7.07;4.87;;;16.70;1.00;;;;;;5055546;28;20412;-84
2023/07/23 01:21:17;;;;;;;7.53;4.80;;;16.60;1.00;;;;;;5055582;28;20367;-84
2023/07/23 01:23:45;;;;;;;9.13;4.93;;;16.50;1.00;;;;;;5068585;28;20430;-84
2023/07/23 01:26:33;;;;;;;10.67;4.97;;;16.40;1.00;;;;;;5064294;28;20829;-84
2023/07/23 01:29:10;;;;;;;7.87;4.23;;;16.30;1.00;;;;;;5074771;28;20377;-84
2023/07/23 01:31:45;;;;;;;7.63;4.10;;;16.20;1.00;;;;;;5074763;28;20970;-84
2023/07/23 01:34:11;;;;;;;10.40;4.33;;;16.20;1.00;;;;;;5072870;28;20399;-74
2023/07/23 01:36:38;;;;;;;10.70;5.47;;;16.00;1.00;;;;;;5060654;28;20502;-74
2023/07/23 01:39:04;;;;;;;8.10;4.37;;;16.00;1.00;;;;;;5067889;28;20376;-74
2023/07/23 01:41:30;;;;;;;8.47;5.50;;;15.90;1.00;;;;;;5070375;28;20471;-74
2023/07/23 01:43:55;;;;;;;8.40;4.87;;;15.80;1.00;;;;;;5073071;28;20531;-74
2023/07/23 01:46:33;;;;;;;7.23;4.47;;;15.70;1.00;;;;;;5067466;28;20180;-75
2023/07/23 01:48:59;;;;;;;9.17;4.23;;;15.70;1.00;;;;;;5072740;28;20733;-75
2023/07/23 01:51:27;;;;;;;11.30;5.10;;;15.60;1.00;;;;;;5066200;28;20437;-74
2023/07/23 01:53:57;;;;;;;11.00;4.37;;;15.60;1.00;;;;;;5067980;28;20175;-75
2023/07/23 01:56:23;;;;;;;9.83;4.57;;;15.50;1.00;;;;;;5066751;28;20376;-75
2023/07/23 01:58:49;;;;;;;9.70;4.63;;;15.40;1.00;;;;;;5064188;28;20742;-74
2023/07/23 02:01:15;;;;;;;6.83;4.50;;;15.30;1.00;;;;;;5061055;28;20646;-74
2023/07/23 02:03:41;;;;;;;7.80;4.90;;;15.30;1.00;;;;;;5062433;28;20172;-75
2023/07/23 02:06:07;;;;;;;14.03;4.57;;;15.20;1.00;;;;;;5053959;28;20415;-74
2023/07/23 02:08:32;;;;;;;9.10;4.30;;;15.20;1.00;;;;;;5056663;28;20526;-75
2023/07/23 02:11:01;;;;;;;7.27;4.63;;;15.10;1.00;;;;;;5071935;28;20725;-75
2023/07/23 02:13:30;;;;;;;7.80;5.33;;;15.00;1.00;;;;;;5065823;28;20530;-75
2023/07/23 02:15:56;;;;;;;6.93;4.77;;;15.00;1.00;;;;;;5058148;28;20430;-75
2023/07/23 02:18:21;;;;;;;8.43;4.33;;;14.90;1.00;;;;;;5067193;28;20414;-75
2023/07/23 02:21:21;;;;;;;13.90;4.53;;;14.80;1.00;;;;;;5054159;28;20160;-84
2023/07/23 02:23:58;;;;;;;10.20;4.57;;;14.80;1.00;;;;;;5069048;28;20199;-84
2023/07/23 02:26:39;;;;;;;8.17;5.07;;;14.70;1.00;;;;;;5073849;28;20409;-84
2023/07/23 02:29:09;;;;;;;10.40;5.10;;;14.60;1.00;;;;;;5074038;28;20877;-84
2023/07/23 02:31:39;;;;;;;16.87;4.90;;;14.60;1.00;;;;;;5073244;28;20395;-84
2023/07/23 02:34:09;;;;;;;8.60;5.00;;;14.60;1.00;;;;;;5073419;28;20792;-75
2023/07/23 02:36:35;;;;;;;14.27;5.37;;;14.50;1.00;;;;;;5070104;28;20408;-74
2023/07/23 02:39:01;;;;;;;6.40;4.43;;;14.50;1.00;;;;;;5061562;28;20399;-75
2023/07/23 02:41:27;;;;;;;6.77;4.87;;;14.40;1.00;;;;;;5062287;28;20183;-75
2023/07/23 02:43:54;;;;;;;10.50;4.23;;;14.40;1.00;;;;;;5055137;28;20183;-75
2023/07/23 02:46:19;;;;;;;7.57;5.40;;;14.20;1.00;;;;;;5066846;28;20443;-75
2023/07/23 02:48:45;;;;;;;14.23;5.50;;;14.30;1.00;;;;;;5056928;28;20475;-74
2023/07/23 02:51:11;;;;;;;12.03;5.50;;;14.20;1.00;;;;;;5068220;28;20173;-75
2023/07/23 02:53:37;;;;;;;7.53;5.10;;;14.20;1.00;;;;;;5059731;28;20921;-75
2023/07/23 02:56:09;;;;;;;6.40;4.10;;;14.20;1.00;;;;;;5068199;28;20187;-75
2023/07/23 02:58:35;;;;;;;9.10;5.40;;;14.20;1.00;;;;;;5061887;28;20198;-75
2023/07/23 03:01:01;;;;;;;9.67;5.23;;;14.10;1.00;;;;;;5057478;28;20434;-74
2023/07/23 03:03:27;;;;;;;7.10;4.70;;;14.10;1.00;;;;;;5062181;28;20197;-75
2023/07/23 03:05:53;;;;;;;6.60;4.57;;;14.10;1.00;;;;;;5063604;28;20561;-74
2023/07/23 03:08:19;;;;;;;10.07;4.83;;;14.10;1.00;;;;;;5064382;28;20448;-74
2023/07/23 03:10:45;;;;;;;5.50;4.40;;;;;;;;;;5069001;28;20716;-75
2023/07/23 03:13:11;;;;;;;7.20;4.43;;;14.00;1.00;;;;;;5072376;28;20204;-75
2023/07/23 03:15:37;;;;;;;8.40;5.07;;;14.00;1.00;;;;;;5073317;28;20915;-75
2023/07/23 03:18:03;;;;;;;9.23;4.70;;;14.00;1.00;;;;;;5059800;28;20660;-75
2023/07/23 03:20:29;;;;;;;7.83;4.07;;;14.00;1.00;;;;;;5070904;28;20487;-75
2023/07/23 03:22:55;;;;;;;9.03;4.40;;;14.00;1.00;;;;;;5062324;28;20495;-75
2023/07/23 03:25:21;;;;;;;10.60;4.83;;;13.90;1.00;;;;;;5068934;28;20179;-75
2023/07/23 03:27:47;;;;;;;8.93;4.70;;;;;;;;;;5059170;28;20332;-75
2023/07/23 03:30:12;;;;;;;9.60;4.90;;;13.70;1.00;;;;;;5058979;28;20180;-75
2023/07/23 03:32:39;;;;;;;9.40;4.83;;;13.90;1.00;;;;;;5063830;28;20722;-75
2023/07/23 03:35:05;;;;;;;9.30;5.00;;;13.80;1.00;;;;;;5073178;28;20549;-75
2023/07/23 03:37:39;;;;;;;6.87;5.10;;;13.70;1.00;;;;;;5071662;28;20505;-75
2023/07/23 03:40:39;;;;;;;6.50;4.40;;;13.70;1.00;;;;;;5072949;28;21017;-85
2023/07/23 03:43:09;;;;;;;6.10;4.63;;;13.70;1.00;;;;;;5068961;28;20414;-86
2023/07/23 03:45:39;;;;;;;7.90;5.00;;;13.70;1.00;;;;;;5068323;28;20396;-85
2023/07/23 03:48:33;;;;;;;7.73;5.20;;;13.70;1.00;;;;;;5069464;28;20459;-85
2023/07/23 03:54:39;;;;;;;8.57;4.80;;;13.60;1.00;;;;;;5069439;28;20447;-86
2023/07/23 03:57:09;;;;;;;6.17;4.53;;;13.70;1.00;;;;;;5070192;28;20396;-86
2023/07/23 03:59:42;;;;;;;8.97;5.00;;;13.60;1.00;;;;;;5070892;28;20399;-86
2023/07/23 04:02:41;;;;;;;8.07;5.43;;;13.60;1.00;;;;;;5071960;28;20411;-86
2023/07/23 04:05:09;;;;;;;11.73;5.37;;;13.60;1.00;;;;;;5075560;28;20498;-86
2023/07/23 04:07:35;;;;;;;8.07;5.20;;;13.60;1.00;;;;;;5075469;28;20480;-86
2023/07/23 04:10:10;;;;;;;14.27;5.00;;;13.60;1.00;;;;;;5073749;28;20392;-86
2023/07/23 04:12:39;;;;;;;8.17;4.97;;;13.60;1.00;;;;;;5071517;28;20178;-85
2023/07/23 04:15:09;;;;;;;8.43;4.17;;;13.70;1.00;;;;;;5074626;28;20952;-86
2023/07/23 04:17:39;;;;;;;11.10;4.60;;;13.70;1.00;;;;;;5055822;28;20408;-86
2023/07/23 04:20:40;;;;;;;5.93;4.40;;;13.70;1.00;;;;;;5066835;28;20926;-86
2023/07/23 04:23:09;;;;;;;10.33;4.80;;;13.70;1.00;;;;;;5074610;28;20470;-85
2023/07/23 04:25:39;;;;;;;5.03;4.20;;;13.70;1.00;;;;;;5075535;28;20429;-85
2023/07/23 04:28:39;;;;;;;6.53;4.40;;;13.80;1.00;;;;;;5076214;28;20791;-85
2023/07/23 04:31:05;;;;;;;7.90;4.80;;;13.90;1.00;;;;;;5061354;28;20482;-85
2023/07/23 04:36:52;;;;;;;7.90;5.23;;;13.90;1.00;;;;;;5057169;28;20179;-85
2023/07/23 04:39:52;;;;;;;10.10;4.40;;;14.00;1.00;;;;;;5088809;28;20421;-86
2023/07/23 04:42:39;;;;;;;8.97;4.53;;;14.00;1.00;;;;;;5069249;28;20194;-86
2023/07/23 04:45:39;;;;;;;6.87;4.70;;;14.10;1.00;;;;;;5092070;28;20508;-86
2023/07/23 04:48:12;;;;;;;7.00;4.40;;;14.30;1.00;;;;;;5074796;28;20824;-85
2023/07/23 04:51:09;;;;;;;7.33;4.50;;;14.40;1.00;;;;;;5071336;28;20415;-85
2023/07/23 04:53:39;;;;;;;6.47;4.10;;;14.50;1.00;;;;;;5060821;28;20392;-85
2023/07/23 04:56:09;;;;;;;7.27;5.00;;;14.60;1.00;;;;;;5078212;28;20400;-85
2023/07/23 04:58:39;;;;;;;16.10;4.57;;;14.80;1.00;;;;;;5074944;28;20399;-85
2023/07/23 05:01:12;;;;;;;8.00;5.07;;;14.90;1.00;;;;;;5060606;28;20424;-85
2023/07/23 05:03:40;;;;;;;8.93;4.83;;;15.00;1.00;;;;;;5067629;28;20524;-85
2023/07/23 05:06:06;;;;;;;6.23;5.07;;;15.20;1.00;;;;;;5059134;28;20622;-86
2023/07/23 05:08:45;;;;;;;9.83;4.73;;;15.30;1.00;;;;;;5056281;28;20469;-87
2023/07/23 05:11:39;;;;;;;10.50;4.57;;;15.50;1.00;;;;;;5072229;28;20455;-86
2023/07/23 05:17:57;;;;;;;7.40;4.40;;;15.80;1.00;;;;;;5065190;28;20412;-86
2023/07/23 05:20:28;;;;;;;8.27;4.27;;;16.10;1.00;;;;;;5066968;28;20537;-86
2023/07/23 05:26:33;;;;;;;5.30;4.33;;;16.30;1.00;;;;;;5067648;28;20928;-86
2023/07/23 05:29:03;;;;;;;5.03;4.23;;;16.50;1.00;;;;;;5056769;28;20922;-85
2023/07/23 05:32:21;;;;;;;10.17;4.67;;;16.70;1.00;;;;;;5072114;28;20974;-85
2023/07/23 05:35:04;;;;;;;7.80;4.17;;;16.90;1.00;;;;;;5066852;28;20426;-84
2023/07/23 05:37:45;;;;;;;5.93;4.50;;;17.10;1.00;;;;;;5068976;28;20430;-85
2023/07/23 05:40:16;;;;;;;7.90;4.63;;;17.30;1.00;;;;;;5069786;28;20419;-85
2023/07/23 05:42:46;;;;;;;13.13;4.57;;;17.40;1.00;;;;;;5065750;28;20423;-84
2023/07/23 05:45:16;;;;;;;8.33;4.57;;;17.50;1.00;;;;;;5066528;28;20442;-85
2023/07/23 05:47:45;;;;;;;8.00;4.40;;;17.70;1.00;;;;;;5057077;28;20469;-85
2023/07/23 05:50:15;;;;;;;7.00;4.33;;;17.70;1.00;;;;;;5069550;28;20771;-85
2023/07/23 05:52:46;;;;;;;8.73;4.20;;;18.00;1.00;;;;;;5068418;28;20420;-85
2023/07/23 05:55:11;;;;;;;7.80;4.27;;;18.10;1.00;;;;;;5065341;28;20440;-85
2023/07/23 05:57:39;;;;;;;15.50;4.80;;;18.30;1.00;;;;;;5066626;28;20436;-85
2023/07/23 06:00:06;;;;;;;4.33;3.63;;;18.40;1.00;;;;;;5067593;28;20238;-85
2023/07/23 06:02:33;;;;;;;6.73;5.00;;;18.60;1.00;;;;;;5067981;28;20428;-85
2023/07/23 06:05:04;;;;;;;8.23;4.60;;;18.90;1.00;;;;;;5059748;28;20780;-87
2023/07/23 06:07:33;;;;;;;7.03;4.40;;;18.90;1.00;;;;;;5072393;28;20472;-88
2023/07/23 06:10:21;;;;;;;4.80;4.20;;;18.90;1.00;;;;;;5064351;28;20421;-87
2023/07/23 06:12:51;;;;;;;11.07;4.20;;;18.90;1.00;;;;;;5074208;28;20466;-88
2023/07/23 06:18:39;;;;;;;6.13;4.20;;;18.90;1.00;;;;;;5065641;28;20411;-87
2023/07/23 06:24:27;;;;;;;5.10;3.80;;;19.00;1.00;;;;;;5072936;28;20407;-88
2023/07/23 06:26:53;;;;;;;7.60;4.10;;;19.10;1.00;;;;;;5070920;28;20452;-88
2023/07/23 06:29:21;;;;;;;6.60;4.17;;;19.20;1.00;;;;;;5067546;28;20179;-88
2023/07/23 06:31:47;;;;;;;5.43;4.00;;;19.00;1.00;;;;;;5057303;28;20654;-88
2023/07/23 06:34:13;;;;;;;4.50;4.00;;;19.10;1.00;;;;;;5068306;28;20426;-87
2023/07/23 06:36:39;;;;;;;9.23;4.33;;;19.40;1.00;;;;;;5058799;28;20206;-87
2023/07/23 06:39:04;;;;;;;8.30;3.10;;;19.50;1.00;;;;;;5068662;28;20173;-86
2023/07/23 06:41:30;;;;;;;4.10;3.60;;;19.60;1.00;;;;;;5072478;28;20217;-87
2023/07/23 06:43:56;;;;;;;3.83;3.43;;;19.90;1.00;;;;;;5069585;28;20456;-86
2023/07/23 06:46:21;;;;;;;5.20;3.80;;;20.10;1.00;;;;;;5074222;28;20178;-86
2023/07/23 06:48:47;;;;;;;11.80;3.67;;;20.20;1.00;;;;;;5066713;28;20682;-86
2023/07/23 06:51:13;;;;;;;5.67;3.10;;;20.40;1.00;;;;;;5069479;28;20669;-86
2023/07/23 06:53:39;;;;;;;4.97;3.53;;;20.70;1.00;;;;;;5055568;28;20495;-86
2023/07/23 06:56:16;;;;;;;5.43;3.60;;;20.70;1.00;;;;;;5062546;28;20986;-86
2023/07/23 06:58:42;;;;;;;7.70;3.47;;;21.10;1.00;;;;;;5078379;28;20173;-85
2023/07/23 07:01:09;;;;;;;9.67;3.27;;;21.20;1.00;;;;;;5062764;28;20462;-86
2023/07/23 07:07:35;;;;;;;4.70;2.83;;;22.10;1.00;;;;;;5068787;28;20482;-86
2023/07/23 07:10:07;;;;;;;3.30;3.00;;;22.30;1.00;;;;;;5063941;28;20483;-86
2023/07/23 07:15:55;;;;;;;3.23;2.90;;;22.50;1.00;;;;;;5073266;28;20407;-86
2023/07/23 07:18:52;;;;;;;4.03;2.60;;;22.80;1.00;;;;;;5065733;28;20426;-86
2023/07/23 07:25:03;;;;;;;2.43;2.23;;;23.60;1.00;;;;;;5065722;28;20874;-86
2023/07/23 07:37:34;;;;;;;7.43;2.40;;;23.70;1.00;;;;;;5073580;28;20437;-87
2023/07/23 08:00:51;;;;;;;10.43;1.83;;;23.20;1.00;;;;;;5070561;28;20440;-86
2023/07/23 08:06:39;;;;;;;4.40;1.80;;;23.50;1.00;;;;;;5076263;28;20442;-91
2023/07/23 08:09:17;;;;;;;3.13;2.00;;;23.70;1.00;;;;;;5074453;28;20437;-85
2023/07/23 08:11:54;;;;;;;3.43;1.70;;;23.80;1.00;;;;;;5072841;28;20532;-86
2023/07/23 08:17:42;;;;;;;1.90;1.47;;;23.70;1.00;;;;;;5056701;28;20808;-86
2023/07/23 08:26:54;;;;;;;3.17;1.70;;;23.30;1.00;;;;;;5075939;28;20481;-86
2023/07/23 08:32:43;;;;;;;3.57;1.90;;;23.20;1.00;;;;;;5076114;28;20742;-87
2023/07/23 08:35:57;;;;;;;1.87;1.77;;;23.10;1.00;;;;;;5070098;28;20918;-86
2023/07/23 08:42:12;;;;;;;6.60;2.00;;;23.30;1.00;;;;;;5073588;28;20775;-87
2023/07/23 08:45:03;;;;;;;3.37;1.90;;;23.50;1.00;;;;;;5062038;28;20424;-87
2023/07/23 08:48:17;;;;;;;2.80;1.80;;;23.40;1.00;;;;;;5054722;28;20462;-87
2023/07/23 08:50:48;;;;;;;3.00;2.10;;;23.50;1.00;;;;;;4973282;28;20443;-87
2023/07/23 08:53:51;;;;;;;1.97;1.50;;;23.80;1.00;;;;;;4975299;28;20416;-87
2023/07/23 08:57:03;;;;;;;3.20;1.43;;;24.20;1.00;;;;;;4961205;28;20444;-86
2023/07/23 09:00:15;;;;;;;3.33;1.87;;;24.50;1.00;;;;;;4978805;28;20447;-86
2023/07/23 09:02:52;;;;;;;2.50;1.87;;;;;;;;;;4978333;28;20530;-87
2023/07/23 09:08:40;;;;;;;4.00;1.70;;;25.40;1.00;;;;;;4987585;28;20505;-87
2023/07/23 09:11:16;;;;;;;4.50;1.60;;;25.40;1.00;;;;;;4975655;28;20426;-87
2023/07/23 09:13:47;;;;;;;1.50;1.40;;;25.30;1.00;;;;;;4970429;28;20439;-86
2023/07/23 09:16:23;;;;;;;1.60;1.50;;;25.20;1.00;;;;;;4992373;28;20420;-87
2023/07/23 09:19:35;;;;;;;2.93;1.70;;;25.60;1.00;;;;;;4975077;28;20442;-87
2023/07/23 09:22:17;;;;;;;2.70;1.50;;;25.40;1.00;;;;;;4977894;28;20426;-87
2023/07/23 09:25:09;;;;;;;1.40;1.30;;;25.40;1.00;;;;;;4994197;28;20410;-87
2023/07/23 09:27:46;;;;;;;5.80;1.70;;;25.50;1.00;;;;;;5038787;28;20873;-88
2023/07/23 09:30:22;;;;;;;6.10;1.70;;;25.50;1.00;;;;;;5076685;28;20412;-87
2023/07/23 09:33:06;;;;;;;5.53;1.70;;;25.00;1.00;;;;;;5074403;28;20403;-89
2023/07/23 09:39:15;;;;;;;3.67;1.40;;;25.10;1.00;;;;;;5064441;28;20763;-88
2023/07/23 09:42:10;;;;;;;3.00;1.40;;;25.30;1.00;;;;;;5069596;28;20942;-86
2023/07/23 09:54:58;;;;;;;3.90;1.27;;;25.30;1.00;;;;;;5061389;28;20426;-87
2023/07/23 09:58:15;;;;;;;1.77;1.30;;;25.20;1.00;;;;;;5062944;28;20426;-89
2023/07/23 10:04:57;;;;;;;5.97;1.30;;;24.90;1.00;;;;;;5054479;28;20447;-87
2023/07/23 10:07:37;;;;;;;6.63;1.50;;;24.70;1.00;;;;;;5070515;28;20486;-88
2023/07/23 10:10:45;;;;;;;1.23;1.13;;;24.10;1.00;;;;;;5073861;28;20422;-87
2023/07/23 10:19:56;;;;;;;1.87;1.30;;;23.80;1.00;;;;;;5054539;28;20959;-87
2023/07/23 10:25:43;;;;;;;1.63;1.30;;;23.60;1.00;;;;;;5074474;28;20438;-88
2023/07/23 10:28:23;;;;;;;1.40;1.30;;;23.80;1.00;;;;;;5061530;28;21037;-87
2023/07/23 10:37:32;;;;;;;3.17;1.20;;;24.20;1.00;;;;;;5060186;28;20988;-88
2023/07/23 10:40:00;;;;;;;3.73;1.40;;;24.70;1.00;;;;;;5058194;28;20432;-88
2023/07/23 10:42:51;;;;;;;2.10;1.20;;;24.80;1.00;;;;;;5054611;28;20196;-88
2023/07/23 10:48:50;;;;;;;1.00;1.00;;;25.10;1.00;;;;;;5074126;28;20517;-88
2023/07/23 10:51:41;;;;;;;6.10;1.10;;;25.70;1.00;;;;;;5077634;28;20428;-88
2023/07/23 10:54:45;;;;;;;0.93;0.93;;;26.00;1.00;;;;;;5074237;28;20969;-88
2023/07/23 10:57:24;;;;;;;1.23;1.13;;;;;;;;;;5065345;28;20438;-88
2023/07/23 11:00:17;;;;;;;2.97;1.00;;;26.20;1.00;;;;;;5069440;28;20423;-87
2023/07/23 11:03:17;;;;;;;1.40;1.30;;;26.20;1.00;;;;;;5073715;28;20431;-85
2023/07/23 11:05:58;;;;;;;1.30;1.20;;;26.10;1.00;;;;;;5071623;28;20526;-87
2023/07/23 11:09:03;;;;;;;1.43;1.23;;;26.20;1.00;;;;;;5064280;28;20518;-87
2023/07/23 11:12:09;;;;;;;13.77;2.00;;;26.50;1.00;;;;;;5074530;28;20780;-89
2023/07/23 11:17:57;;;;;;;4.10;1.37;;;26.60;1.00;;;;;;5053579;28;20489;-88
2023/07/23 11:23:45;;;;;;;3.53;1.27;;;27.10;1.00;;;;;;5067024;28;20286;-87
2023/07/23 11:30:15;;;;;;;1.87;1.50;;;27.40;1.00;;;;;;5053620;28;20288;-91
2023/07/23 11:33:22;;;;;;;4.53;1.10;;;27.50;1.00;;;;;;5059450;28;20417;-91
2023/07/23 11:36:39;;;;;;;1.67;1.57;;;27.30;1.00;;;;;;5064438;28;20437;-90
2023/07/23 11:42:26;;;;;;;3.07;1.30;;;27.60;1.00;;;;;;5058315;28;20458;-86
2023/07/23 11:48:33;;;;;;;2.40;1.40;;;28.00;1.00;;;;;;5072422;28;20232;-88
2023/07/23 11:51:51;;;;;;;2.80;1.23;;;28.10;1.00;;;;;;5065960;28;20425;-87
2023/07/23 11:54:45;;;;;;;3.17;1.50;;;28.60;1.00;;;;;;5071616;28;20432;-88
2023/07/23 12:01:04;;;;;;;2.50;1.33;;;28.20;1.00;;;;;;5070929;28;20425;-88
2023/07/23 12:06:52;;;;;;;4.40;1.50;;;28.00;1.00;;;;;;5063619;28;20478;-90
2023/07/23 12:19:57;;;;;;;15.17;1.60;;;27.30;1.00;;;;;;5066939;28;20828;-86
2023/07/23 12:23:03;;;;;;;3.27;1.50;;;27.40;1.00;;;;;;5074926;28;20417;-85
2023/07/23 12:25:40;;;;;;;3.30;1.50;;;27.40;1.00;;;;;;5060893;28;20434;-87
2023/07/23 12:28:07;;;;;;;6.20;1.40;;;27.50;1.00;;;;;;5064682;28;20454;-90
2023/07/23 12:30:46;;;;;;;2.23;1.53;;;27.40;1.00;;;;;;5074656;28;20797;-90
2023/07/23 12:33:28;;;;;;;1.60;1.40;;;27.40;1.00;;;;;;5072476;28;20395;-91
2023/07/23 12:35:54;;;;;;;2.27;1.60;;;27.30;1.00;;;;;;5070630;28;20414;-90
2023/07/23 12:41:42;;;;;;;8.47;1.87;;;27.40;1.00;;;;;;5056942;28;20223;-87
2023/07/23 12:47:30;;;;;;;2.40;1.60;;;27.40;1.00;;;;;;5076325;28;20470;-87
2023/07/23 12:56:40;;;;;;;10.47;1.73;;;28.00;1.00;;;;;;5071281;28;20430;-86
2023/07/23 12:59:12;;;;;;;5.13;1.50;;;27.80;1.00;;;;;;5074089;28;20825;-86
2023/07/23 13:02:21;;;;;;;2.97;1.93;;;27.50;1.00;;;;;;5074025;28;20424;-85
2023/07/23 13:08:22;;;;;;;1.93;1.83;;;27.40;1.00;;;;;;5059765;28;20481;-89
2023/07/23 13:10:58;;;;;;;1.97;1.60;;;27.50;1.00;;;;;;5074978;28;20780;-91
2023/07/23 13:13:57;;;;;;;2.20;2.00;;;27.60;1.00;;;;;;5061441;28;20427;-89
2023/07/23 13:16:45;;;;;;;2.70;2.03;;;27.70;1.00;;;;;;5065088;28;20529;-87
2023/07/23 13:19:39;;;;;;;2.30;1.87;;;28.30;1.00;;;;;;5060040;28;20420;-86
2023/07/23 13:25:40;;;;;;;5.93;1.80;;;28.70;1.00;;;;;;5073759;28;20504;-88
2023/07/23 13:28:10;;;;;;;1.50;1.40;;;28.70;1.00;;;;;;5074703;28;20460;-88
2023/07/23 13:33:57;;;;;;;2.73;1.57;;;28.40;1.00;;;;;;5071136;28;20414;-90
2023/07/23 13:36:45;;;;;;;5.57;1.70;;;28.20;1.00;;;;;;5063936;28;20939;-89
2023/07/23 13:45:56;;;;;;;3.07;1.77;;;;;;;;;;5055198;28;20470;-90
2023/07/23 13:58:28;;;;;;;18.33;2.70;;;28.50;1.00;;;;;;5071651;28;20418;-88
2023/07/23 14:01:21;;;;;;;7.40;1.90;;;28.50;1.00;;;;;;5072828;28;20459;-92
2023/07/23 14:07:09;;;;;;;3.37;1.87;;;;;;;;;;5062561;28;20574;-91
2023/07/23 14:13:39;;;;;;;4.27;1.93;;;29.60;1.00;;;;;;5066472;28;20466;-90
2023/07/23 14:19:28;;;;;;;2.50;1.70;;;29.20;1.00;;;;;;5059320;28;20399;-92
2023/07/23 14:28:37;;;;;;;2.60;2.10;;;28.30;1.00;;;;;;5065299;28;20463;-90
2023/07/23 14:31:17;;;;;;;1.83;1.63;;;28.30;1.00;;;;;;5073194;28;20847;-90
2023/07/23 14:34:09;;;;;;;7.30;1.73;;;28.60;1.00;;;;;;5079744;28;20207;-89
2023/07/23 14:36:35;;;;;;;6.30;2.30;;;28.60;1.00;;;;;;5054323;28;20422;-89
2023/07/23 14:53:46;;;;;;;3.23;1.63;;;28.90;1.00;;;;;;5064539;28;20894;-92
2023/07/23 14:59:33;;;;;;;6.50;1.50;;;28.60;1.00;;;;;;5054305;28;21053;-91
2023/07/23 15:02:33;;;;;;;8.30;1.77;;;28.50;1.00;;;;;;5069470;28;20531;-93
2023/07/23 15:12:27;;;;;;;3.13;1.70;;;27.80;1.00;;;;;;5072530;28;20419;-91
2023/07/23 15:15:15;;;;;;;1.77;1.50;;;27.90;1.00;;;;;;5072991;28;20444;-88
2023/07/23 15:21:10;;;;;;;2.60;1.77;;;27.50;1.00;;;;;;5073571;28;20421;-90
2023/07/23 15:24:17;;;;;;;1.57;1.27;;;27.40;1.00;;;;;;5072844;28;20420;-92
2023/07/23 15:27:01;;;;;;;5.63;1.40;;;27.50;1.00;;;;;;5065436;28;20791;-91
2023/07/23 15:29:46;;;;;;;2.07;1.27;;;27.50;1.00;;;;;;5059884;28;20421;-89
2023/07/23 15:32:57;;;;;;;1.50;1.40;;;27.50;1.00;;;;;;5063626;28;20417;-90
2023/07/23 15:38:47;;;;;;;2.70;1.20;;;27.30;1.00;;;;;;5073648;28;20423;-91
2023/07/23 15:44:37;;;;;;;2.53;1.37;;;27.00;1.00;;;;;;5064327;28;20388;-95
2023/07/23 15:50:34;;;;;;;1.50;1.40;;;27.30;1.00;;;;;;5072975;28;20820;-90
2023/07/23 15:53:04;;;;;;;3.70;2.97;;;27.30;1.00;;;;;;5079436;28;20425;-91
2023/07/23 15:55:51;;;;;;;81.07;22.80;;;27.60;1.00;;;;;;5071210;28;20940;-90
2023/07/23 16:01:40;;;;;;;1.53;1.43;;;28.00;1.00;;;;;;5063200;28;20914;-87
2023/07/23 16:04:09;;;;;;;1.20;1.10;;;28.30;1.00;;;;;;5075865;28;20423;-88
2023/07/23 16:06:43;;;;;;;2.30;1.20;;;28.10;1.00;;;;;;5062972;28;20182;-89
2023/07/23 16:09:16;;;;;;;3.07;1.43;;;28.00;1.00;;;;;;5075375;28;20586;-91
2023/07/23 16:11:46;;;;;;;6.20;1.40;;;27.80;1.00;;;;;;5061753;28;20950;-91
2023/07/23 16:17:40;;;;;;;1.87;1.27;;;27.30;1.00;;;;;;5068567;28;20408;-91
2023/07/23 16:23:51;;;;;;;2.80;1.60;;;27.00;1.00;;;;;;5076224;28;20553;-90
2023/07/23 16:26:39;;;;;;;3.37;1.40;;;26.60;1.00;;;;;;5067316;28;20494;-90
2023/07/23 16:32:29;;;;;;;3.50;1.83;;;26.40;1.00;;;;;;5067577;28;20419;-92
2023/07/23 16:34:55;;;;;;;1.50;1.40;;;26.20;1.00;;;;;;5078163;28;20506;-92
2023/07/23 16:44:28;;;;;;;5.30;2.00;;;26.30;1.00;;;;;;5063970;28;20427;-91
2023/07/23 16:50:16;;;;;;;2.80;1.40;;;26.40;1.00;;;;;;5076016;28;20464;-90
2023/07/23 16:52:46;;;;;;;3.97;1.47;;;26.50;1.00;;;;;;5072698;28;20428;-83
2023/07/23 16:58:40;;;;;;;2.83;1.43;;;26.30;1.00;;;;;;5064224;28;20413;-87
2023/07/23 17:04:57;;;;;;;1.70;1.60;;;26.20;1.00;;;;;;5065529;28;20441;-87
2023/07/23 17:07:23;;;;;;;2.30;1.40;;;26.00;1.00;;;;;;5071231;28;20498;-88
2023/07/23 17:09:49;;;;;;;1.80;1.30;;;26.00;1.00;;;;;;5065853;28;20430;-87
2023/07/23 17:19:28;;;;;;;2.37;1.40;;;25.80;1.00;;;;;;5067907;28;20504;-89
2023/07/23 17:29:27;;;;;;;1.80;1.20;;;25.70;1.00;;;;;;5074929;28;20459;-90
2023/07/23 17:45:45;;;;;;;4.90;1.10;;;25.50;1.00;;;;;;5072278;28;20442;-90
2023/07/23 17:48:11;;;;;;;1.00;0.93;;;25.40;1.00;;;;;;5058968;28;20470;-90
2023/07/23 17:53:58;;;;;;;1.60;1.30;;;25.50;1.00;;;;;;5068673;28;20179;-90
2023/07/23 17:59:46;;;;;;;1.77;1.30;;;25.40;1.00;;;;;;5064056;28;20191;-90
2023/07/23 18:06:27;;;;;;;3.60;1.37;;;25.40;1.00;;;;;;5074117;28;20238;-89
2023/07/23 18:15:37;;;;;;;5.13;1.30;;;25.40;1.00;;;;;;5073876;28;20925;-89
2023/07/23 18:18:39;;;;;;;1.43;1.33;;;25.30;1.00;;;;;;5069380;28;20432;-89
2023/07/23 18:24:28;;;;;;;2.17;1.40;;;25.30;1.00;;;;;;5071587;28;20426;-89
2023/07/23 18:27:46;;;;;;;3.93;2.30;;;25.30;1.00;;;;;;5074670;28;20460;-89
2023/07/23 18:34:14;;;;;;;2.03;1.50;;;25.20;1.00;;;;;;5061928;28;20403;-89
2023/07/23 18:40:02;;;;;;;4.77;1.20;;;25.00;1.00;;;;;;5073964;28;20417;-90
2023/07/23 18:42:28;;;;;;;1.60;1.50;;;24.90;1.00;;;;;;5090225;28;20621;-90
2023/07/23 19:02:33;;;;;;;11.57;1.30;;;24.50;1.00;;;;;;5061761;28;20410;-88
2023/07/23 19:05:33;;;;;;;1.43;1.33;;;24.30;1.00;;;;;;5057918;28;20526;-88
2023/07/23 19:07:59;;;;;;;1.27;1.10;;;24.20;1.00;;;;;;5068869;28;20472;-89
2023/07/23 19:11:16;;;;;;;2.20;1.30;;;24.30;1.00;;;;;;5075761;28;20431;-89
2023/07/23 19:14:07;;;;;;;1.47;1.37;;;24.20;1.00;;;;;;5060253;28;20193;-89
2023/07/23 19:19:55;;;;;;;3.07;1.47;;;24.10;1.00;;;;;;5077490;28;20480;-89
2023/07/23 19:22:20;;;;;;;1.17;1.07;;;24.10;1.00;;;;;;5077583;28;20821;-89
2023/07/23 19:25:39;;;;;;;1.63;1.53;;;24.10;1.00;;;;;;5077893;28;20178;-89
2023/07/23 19:28:27;;;;;;;1.47;1.37;;;24.10;1.00;;;;;;5071596;28;20200;-89
2023/07/23 19:34:15;;;;;;;2.43;1.40;;;24.10;1.00;;;;;;5060773;28;20413;-89
2023/07/23 19:40:03;;;;;;;1.63;1.50;;;23.90;1.00;;;;;;5063390;28;20210;-89
2023/07/23 19:46:04;;;;;;;2.20;1.13;;;23.80;1.00;;;;;;5070384;28;20200;-82
2023/07/23 19:48:29;;;;;;;5.63;1.30;;;23.70;1.00;;;;;;5070923;28;20457;-75
2023/07/23 19:50:58;;;;;;;1.93;1.63;;;23.60;1.00;;;;;;5071534;28;21036;-75
2023/07/23 19:53:24;;;;;;;1.73;1.30;;;23.60;1.00;;;;;;5071868;28;20182;-75
2023/07/23 19:55:49;;;;;;;1.77;1.47;;;23.50;1.00;;;;;;5074069;28;20448;-74